createdAt,value
2022-10-31T00:01:38.899Z,6.50
2022-10-31T00:04:08.288Z,7.67
2022-10-31T00:06:36.648Z,7.37
2022-10-31T00:09:07.012Z,8.57
2022-10-31T00:11:35.578Z,8.90
2022-10-31T00:14:06.092Z,7.60
2022-10-31T00:16:34.631Z,6.93
2022-10-31T00:19:05.360Z,6.77
2022-10-31T00:21:34.423Z,7.23
2022-10-31T00:24:03.238Z,7.90
2022-10-31T00:26:33.428Z,7.43
2022-10-31T00:29:02.463Z,8.53
2022-10-31T00:31:31.334Z,9.23
2022-10-31T00:34:01.404Z,8.80
2022-10-31T00:36:30.952Z,9.40
2022-10-31T00:39:00.881Z,7.67
2022-10-31T00:41:31.550Z,8.80
2022-10-31T00:44:01.123Z,8.07
2022-10-31T00:46:29.523Z,10.40
2022-10-31T00:48:58.324Z,8.97
2022-10-31T00:51:27.912Z,7.87
2022-10-31T00:53:56.283Z,9.03
2022-10-31T00:56:25.840Z,10.23
2022-10-31T00:58:54.614Z,9.33
2022-10-31T01:01:25.413Z,9.40
2022-10-31T01:03:54.056Z,9.30
2022-10-31T01:06:22.644Z,8.87
2022-10-31T01:08:51.474Z,8.30
2022-10-31T01:11:22.868Z,9.10
2022-10-31T01:13:54.829Z,11.20
2022-10-31T01:16:26.584Z,10.37
2022-10-31T01:18:55.008Z,9.10
2022-10-31T01:21:27.287Z,11.50
2022-10-31T01:23:57.053Z,9.87
2022-10-31T01:26:28.625Z,11.20
2022-10-31T01:28:59.727Z,11.27
2022-10-31T01:31:32.779Z,13.20
2022-10-31T01:34:01.689Z,12.20
2022-10-31T01:36:40.186Z,10.87
2022-10-31T01:39:14.563Z,12.10
2022-10-31T01:41:51.556Z,10.80
2022-10-31T01:44:19.872Z,10.60
2022-10-31T01:47:03.309Z,9.00
2022-10-31T01:49:40.046Z,10.30
2022-10-31T01:52:26.223Z,10.33
2022-10-31T01:55:05.033Z,10.70
2022-10-31T01:57:35.452Z,12.00
2022-10-31T02:00:08.866Z,11.97
2022-10-31T02:02:37.736Z,12.13
2022-10-31T02:05:11.351Z,11.30
2022-10-31T02:07:45.670Z,10.67
2022-10-31T02:10:14.388Z,10.63
2022-10-31T02:12:43.464Z,11.07
2022-10-31T02:15:12.425Z,8.60
2022-10-31T02:17:40.850Z,10.57
2022-10-31T02:20:12.512Z,10.70
2022-10-31T02:22:59.928Z,9.97
2022-10-31T02:25:43.742Z,10.63
2022-10-31T02:28:27.246Z,10.93
2022-10-31T02:30:58.406Z,9.03
2022-10-31T02:33:50.237Z,10.30
2022-10-31T02:36:29.671Z,11.47
2022-10-31T02:39:10.234Z,11.23
2022-10-31T02:41:54.729Z,13.13
2022-10-31T02:44:38.682Z,13.60
2022-10-31T02:47:24.384Z,11.10
2022-10-31T02:50:08.873Z,11.23
2022-10-31T02:52:38.293Z,11.57
2022-10-31T02:55:32.702Z,12.40
2022-10-31T02:58:15.663Z,11.67
2022-10-31T03:01:10.446Z,10.67
2022-10-31T03:03:57.207Z,12.30
2022-10-31T03:06:49.646Z,13.10
2022-10-31T03:09:29.935Z,13.00
2022-10-31T03:12:11.501Z,12.70
2022-10-31T03:15:01.044Z,12.53
2022-10-31T03:17:39.540Z,12.10
2022-10-31T03:20:11.813Z,11.63
2022-10-31T03:22:44.447Z,12.73
2022-10-31T03:25:15.264Z,13.70
2022-10-31T03:27:45.833Z,13.10
2022-10-31T03:30:15.388Z,13.83
2022-10-31T03:32:53.161Z,13.57
2022-10-31T03:35:25.283Z,14.40
2022-10-31T03:37:56.276Z,13.40
2022-10-31T03:40:28.098Z,13.60
2022-10-31T03:43:04.234Z,13.30
2022-10-31T03:45:34.619Z,12.00
2022-10-31T03:48:03.393Z,10.83
2022-10-31T03:51:06.038Z,11.33
2022-10-31T03:53:47.037Z,10.77
2022-10-31T03:56:30.089Z,11.03
2022-10-31T03:59:30.610Z,11.20
2022-10-31T04:02:05.199Z,11.60
2022-10-31T04:04:34.308Z,8.90
2022-10-31T04:07:03.655Z,10.77
2022-10-31T04:09:35.553Z,10.10
2022-10-31T04:12:07.230Z,10.80
2022-10-31T04:14:39.038Z,10.50
2022-10-31T04:17:14.520Z,9.73
2022-10-31T04:19:42.981Z,9.73
2022-10-31T04:22:11.542Z,10.37
2022-10-31T04:24:41.665Z,10.10
2022-10-31T04:27:10.343Z,13.10
2022-10-31T04:29:38.707Z,15.47
2022-10-31T04:32:07.194Z,11.00
2022-10-31T04:34:35.816Z,16.00
2022-10-31T04:37:04.155Z,10.63
2022-10-31T04:39:32.885Z,9.20
2022-10-31T04:42:01.338Z,10.30
2022-10-31T04:44:29.721Z,9.70
2022-10-31T04:46:58.082Z,9.43
2022-10-31T04:49:26.524Z,8.27
2022-10-31T04:51:54.982Z,7.80
2022-10-31T04:54:23.459Z,9.67
2022-10-31T04:56:51.848Z,6.97
2022-10-31T04:59:20.231Z,7.80
2022-10-31T05:01:48.708Z,7.03
2022-10-31T05:04:17.271Z,7.17
2022-10-31T05:06:45.619Z,8.43
2022-10-31T05:09:14.015Z,7.60
2022-10-31T05:11:42.438Z,7.83
2022-10-31T05:14:10.823Z,6.33
2022-10-31T05:16:39.178Z,7.30
2022-10-31T05:19:08.138Z,6.37
2022-10-31T05:21:36.546Z,6.80
2022-10-31T05:24:05.185Z,7.23
2022-10-31T05:26:34.071Z,6.30
2022-10-31T05:29:02.531Z,6.90
2022-10-31T05:31:30.946Z,8.40
2022-10-31T05:33:59.353Z,6.97
2022-10-31T05:36:27.751Z,7.20
2022-10-31T05:38:56.137Z,7.00
2022-10-31T05:41:24.658Z,6.20
2022-10-31T05:43:53.105Z,6.07
2022-10-31T05:46:21.544Z,6.23
2022-10-31T05:48:50.012Z,6.40
2022-10-31T05:51:18.418Z,5.47
2022-10-31T05:53:49.276Z,6.53
2022-10-31T05:56:17.819Z,6.00
2022-10-31T05:58:46.215Z,6.83
2022-10-31T06:01:14.685Z,6.27
2022-10-31T06:03:43.116Z,5.60
2022-10-31T06:06:11.485Z,5.40
2022-10-31T06:08:40.039Z,5.90
2022-10-31T06:11:08.516Z,4.60
2022-10-31T06:13:36.868Z,5.80
2022-10-31T06:16:05.428Z,7.27
2022-10-31T06:18:33.876Z,4.57
2022-10-31T06:21:02.415Z,5.67
2022-10-31T06:23:30.848Z,5.73
2022-10-31T06:25:59.289Z,5.33
2022-10-31T06:28:27.624Z,4.50
2022-10-31T06:30:55.992Z,4.20
2022-10-31T06:33:24.596Z,4.50
2022-10-31T06:35:52.987Z,4.57
2022-10-31T06:38:21.356Z,4.40
2022-10-31T06:40:49.836Z,4.40
2022-10-31T06:43:18.213Z,5.17
2022-10-31T06:45:46.667Z,6.03
2022-10-31T06:48:17.913Z,5.80
2022-10-31T06:50:46.795Z,5.63
2022-10-31T06:53:16.182Z,5.20
2022-10-31T06:55:45.188Z,5.60
2022-10-31T06:58:13.761Z,6.33
2022-10-31T07:00:45.358Z,5.40
2022-10-31T07:03:15.803Z,5.53
2022-10-31T07:05:44.983Z,6.07
2022-10-31T07:08:15.717Z,5.30
2022-10-31T07:10:45.342Z,4.90
2022-10-31T07:13:16.001Z,5.97
2022-10-31T07:15:45.586Z,5.63
2022-10-31T07:18:14.512Z,4.20
2022-10-31T07:20:43.011Z,4.43
2022-10-31T07:23:14.907Z,5.73
2022-10-31T07:25:43.735Z,6.00
2022-10-31T07:28:12.993Z,5.87
2022-10-31T07:30:41.585Z,5.80
2022-10-31T07:33:11.166Z,5.40
2022-10-31T07:35:39.775Z,5.37
2022-10-31T07:38:12.583Z,5.30
2022-10-31T07:40:42.109Z,5.07
2022-10-31T07:43:14.583Z,7.50
2022-10-31T07:45:43.739Z,6.20
2022-10-31T07:48:12.362Z,6.70
2022-10-31T07:50:41.083Z,6.23
2022-10-31T07:53:12.628Z,5.03
2022-10-31T07:55:41.838Z,5.53
2022-10-31T07:58:18.207Z,5.13
2022-10-31T08:00:49.891Z,5.10
2022-10-31T08:03:20.755Z,5.20
2022-10-31T08:05:49.263Z,5.00
2022-10-31T08:08:17.997Z,5.00
2022-10-31T08:10:46.435Z,4.87
2022-10-31T08:13:16.098Z,6.47
2022-10-31T08:15:44.743Z,6.00
2022-10-31T08:18:16.882Z,4.80
2022-10-31T08:20:46.012Z,5.10
2022-10-31T08:23:15.723Z,5.60
2022-10-31T08:25:44.704Z,4.63
2022-10-31T08:28:13.808Z,4.50
2022-10-31T08:30:43.253Z,5.93
2022-10-31T08:33:18.597Z,4.63
2022-10-31T08:35:47.492Z,5.20
2022-10-31T08:38:16.092Z,4.60
2022-10-31T08:40:44.832Z,5.63
2022-10-31T08:43:15.784Z,5.27
2022-10-31T08:45:45.784Z,4.60
2022-10-31T08:48:16.184Z,6.07
2022-10-31T08:50:46.774Z,5.03
2022-10-31T08:53:20.511Z,5.17
2022-10-31T08:55:49.597Z,5.27
2022-10-31T08:58:19.932Z,5.07
2022-10-31T09:00:50.566Z,4.80
2022-10-31T09:03:27.364Z,5.37
2022-10-31T09:06:04.776Z,5.40
2022-10-31T09:08:34.514Z,4.67
2022-10-31T09:11:03.963Z,5.33
2022-10-31T09:13:33.344Z,4.90
2022-10-31T09:16:02.369Z,5.27
2022-10-31T09:18:30.891Z,5.00
2022-10-31T09:21:01.285Z,4.70
2022-10-31T09:23:30.087Z,4.87
2022-10-31T09:26:01.220Z,5.43
2022-10-31T09:28:29.731Z,5.00
2022-10-31T09:30:58.146Z,4.90
2022-10-31T09:33:26.558Z,4.40
2022-10-31T09:35:55.199Z,5.07
2022-10-31T09:38:25.132Z,6.13
2022-10-31T09:41:15.589Z,5.57
2022-10-31T09:43:50.124Z,4.30
2022-10-31T09:46:35.335Z,5.40
2022-10-31T09:49:03.660Z,4.23
2022-10-31T09:51:42.657Z,4.30
2022-10-31T09:54:16.977Z,3.77
2022-10-31T09:56:46.751Z,4.47
2022-10-31T09:59:32.058Z,4.00
2022-10-31T10:02:18.547Z,4.30
2022-10-31T10:05:03.248Z,4.10
2022-10-31T10:07:32.190Z,4.17
2022-10-31T10:10:03.717Z,3.63
2022-10-31T10:13:09.995Z,3.63
2022-10-31T10:15:38.633Z,3.50
2022-10-31T10:18:45.216Z,4.50
2022-10-31T10:21:47.237Z,3.23
2022-10-31T10:24:33.248Z,5.17
2022-10-31T10:27:09.195Z,3.93
2022-10-31T10:30:04.522Z,3.40
2022-10-31T10:32:42.153Z,3.73
2022-10-31T10:35:35.198Z,3.37
2022-10-31T10:38:17.032Z,3.90
2022-10-31T10:40:46.051Z,3.70
2022-10-31T10:43:36.478Z,3.53
2022-10-31T10:46:32.228Z,3.10
2022-10-31T10:49:22.235Z,4.37
2022-10-31T10:52:41.751Z,3.70
2022-10-31T10:55:39.103Z,4.13
2022-10-31T10:58:10.739Z,3.67
2022-10-31T11:00:48.758Z,3.83
2022-10-31T11:03:18.468Z,3.47
2022-10-31T11:05:49.588Z,3.27
2022-10-31T11:08:28.811Z,4.20
2022-10-31T11:11:10.198Z,3.23
2022-10-31T11:13:38.931Z,3.40
2022-10-31T11:16:11.785Z,4.07
2022-10-31T11:18:44.190Z,3.77
2022-10-31T11:21:41.685Z,2.80
2022-10-31T11:24:10.146Z,3.47
2022-10-31T11:26:42.471Z,3.10
2022-10-31T11:29:24.375Z,3.17
2022-10-31T11:32:02.802Z,3.17
2022-10-31T11:34:47.721Z,4.20
2022-10-31T11:37:23.258Z,3.10
2022-10-31T11:39:58.978Z,3.57
2022-10-31T11:42:31.202Z,2.90
2022-10-31T11:45:00.010Z,3.67
2022-10-31T11:47:31.947Z,2.70
2022-10-31T11:50:04.070Z,3.30
2022-10-31T11:52:34.418Z,3.20
2022-10-31T11:55:14.884Z,3.40
2022-10-31T11:57:48.976Z,3.50
2022-10-31T12:00:29.791Z,2.97
2022-10-31T12:03:24.540Z,3.40
2022-10-31T12:06:19.813Z,3.57
2022-10-31T12:08:48.528Z,3.13
2022-10-31T12:11:32.163Z,3.37
2022-10-31T12:14:26.244Z,3.10
2022-10-31T12:17:16.635Z,3.50
2022-10-31T12:20:34.631Z,4.10
2022-10-31T12:23:08.967Z,3.27
2022-10-31T12:26:22.246Z,3.23
2022-10-31T12:28:59.824Z,4.67
2022-10-31T12:31:37.052Z,3.50
2022-10-31T12:34:49.263Z,2.93
2022-10-31T12:37:32.965Z,2.80
2022-10-31T12:40:14.198Z,2.97
2022-10-31T12:43:01.441Z,2.73
2022-10-31T12:45:39.444Z,3.33
2022-10-31T12:48:19.808Z,3.33
2022-10-31T12:50:57.461Z,3.13
2022-10-31T12:53:52.196Z,3.53
2022-10-31T12:56:33.735Z,3.60
2022-10-31T12:59:16.694Z,3.80
2022-10-31T13:01:56.133Z,3.40
2022-10-31T13:05:05.655Z,3.70
2022-10-31T13:07:48.996Z,3.80
2022-10-31T13:10:38.795Z,3.27
2022-10-31T13:13:19.776Z,4.03
2022-10-31T13:15:56.024Z,3.90
2022-10-31T13:18:31.055Z,3.80
2022-10-31T13:21:04.087Z,4.40
2022-10-31T13:23:51.699Z,4.43
2022-10-31T13:26:50.782Z,4.30
2022-10-31T13:29:32.656Z,5.00
2022-10-31T13:32:06.391Z,5.43
2022-10-31T13:34:42.593Z,4.63
2022-10-31T13:37:37.431Z,5.10
2022-10-31T13:40:05.809Z,6.47
2022-10-31T13:42:52.627Z,4.97
2022-10-31T13:45:23.660Z,5.60
2022-10-31T13:48:34.603Z,5.37
2022-10-31T13:51:11.985Z,6.83
2022-10-31T13:53:52.302Z,7.40
2022-10-31T13:56:24.144Z,6.20
2022-10-31T13:59:23.885Z,4.63
2022-10-31T14:02:15.869Z,6.73
2022-10-31T14:05:02.934Z,5.57
2022-10-31T14:07:32.416Z,6.20
2022-10-31T14:10:23.148Z,5.30
2022-10-31T14:12:52.395Z,7.27
2022-10-31T14:15:26.339Z,4.90
2022-10-31T14:17:59.428Z,6.77
2022-10-31T14:20:36.841Z,6.10
2022-10-31T14:23:15.020Z,6.10
2022-10-31T14:25:43.447Z,5.30
2022-10-31T14:28:35.016Z,6.47
2022-10-31T14:31:03.860Z,5.90
2022-10-31T14:33:33.963Z,7.47
2022-10-31T14:36:05.273Z,5.43
2022-10-31T14:39:00.766Z,7.47
2022-10-31T14:41:33.288Z,6.73
2022-10-31T14:44:23.066Z,7.37
2022-10-31T14:47:11.466Z,6.27
2022-10-31T14:49:58.087Z,7.60
2022-10-31T14:52:26.506Z,5.43
2022-10-31T14:54:58.610Z,7.50
2022-10-31T14:57:39.656Z,7.90
2022-10-31T15:00:10.608Z,7.50
2022-10-31T15:03:07.082Z,6.87
2022-10-31T15:05:43.820Z,7.97
2022-10-31T15:08:35.385Z,7.50
2022-10-31T15:11:18.920Z,7.90
2022-10-31T15:13:53.454Z,6.20
2022-10-31T15:16:33.649Z,7.07
2022-10-31T15:19:06.029Z,8.17
2022-10-31T15:21:35.620Z,7.13
2022-10-31T15:24:05.261Z,7.20
2022-10-31T15:26:45.106Z,8.60
2022-10-31T15:29:17.480Z,7.43
2022-10-31T15:32:00.198Z,8.13
2022-10-31T15:34:45.547Z,7.30
2022-10-31T15:37:19.539Z,7.57
2022-10-31T15:39:49.975Z,7.37
2022-10-31T15:42:26.378Z,7.50
2022-10-31T15:45:12.584Z,8.60
2022-10-31T15:47:47.146Z,6.00
2022-10-31T15:50:30.650Z,5.70
2022-10-31T15:52:59.510Z,7.50
2022-10-31T15:55:31.210Z,7.07
2022-10-31T15:58:03.734Z,7.50
2022-10-31T16:00:35.408Z,6.70
2022-10-31T16:03:27.037Z,7.10
2022-10-31T16:06:05.354Z,5.30
2022-10-31T16:08:37.740Z,4.90
2022-10-31T16:11:09.318Z,4.67
2022-10-31T16:13:53.624Z,5.03
2022-10-31T16:16:38.658Z,4.83
2022-10-31T16:19:14.960Z,5.17
2022-10-31T16:21:43.640Z,4.60
2022-10-31T16:24:20.460Z,4.50
2022-10-31T16:26:54.900Z,4.80
2022-10-31T16:29:45.549Z,5.93
2022-10-31T16:32:53.325Z,5.30
2022-10-31T16:35:44.683Z,6.00
2022-10-31T16:38:13.036Z,4.90
2022-10-31T16:40:41.895Z,6.60
2022-10-31T16:43:15.581Z,7.00
2022-10-31T16:45:51.763Z,7.00
2022-10-31T16:48:24.352Z,5.77
2022-10-31T16:50:55.462Z,6.77
2022-10-31T16:53:25.106Z,7.87
2022-10-31T16:56:01.187Z,7.43
2022-10-31T16:58:37.792Z,7.73
2022-10-31T17:01:08.366Z,6.87
2022-10-31T17:03:37.471Z,6.80
2022-10-31T17:06:06.172Z,6.97
2022-10-31T17:08:34.908Z,5.83
2022-10-31T17:11:03.810Z,6.60
2022-10-31T17:13:34.882Z,7.50
2022-10-31T17:16:04.614Z,6.53
2022-10-31T17:18:33.350Z,5.93
2022-10-31T17:21:04.044Z,6.10
2022-10-31T17:23:34.088Z,6.50
2022-10-31T17:26:02.496Z,7.80
2022-10-31T17:28:31.163Z,5.70
2022-10-31T17:31:00.020Z,5.70
2022-10-31T17:33:28.606Z,5.87
2022-10-31T17:35:57.053Z,5.90
2022-10-31T17:38:25.471Z,6.20
2022-10-31T17:40:53.943Z,6.50
2022-10-31T17:43:22.372Z,6.30
2022-10-31T17:45:50.708Z,7.27
2022-10-31T17:48:19.032Z,8.00
2022-10-31T17:50:47.420Z,6.27
2022-10-31T17:53:15.789Z,6.97
2022-10-31T17:55:44.162Z,8.53
2022-10-31T17:58:15.205Z,7.37
2022-10-31T18:00:45.880Z,7.80
2022-10-31T18:03:17.322Z,7.80
2022-10-31T18:05:57.209Z,6.77
2022-10-31T18:08:30.073Z,7.20
2022-10-31T18:11:01.598Z,7.90
2022-10-31T18:13:30.135Z,8.07
2022-10-31T18:15:58.912Z,7.90
2022-10-31T18:18:27.439Z,8.97
2022-10-31T18:20:59.453Z,8.00
2022-10-31T18:23:27.802Z,8.33
2022-10-31T18:25:56.588Z,9.73
2022-10-31T18:28:25.044Z,6.37
2022-10-31T18:30:53.483Z,7.93
2022-10-31T18:33:22.110Z,7.87
2022-10-31T18:35:50.551Z,8.37
2022-10-31T18:38:18.948Z,7.90
2022-10-31T18:40:47.390Z,7.40
2022-10-31T18:43:15.999Z,6.00
2022-10-31T18:45:47.461Z,7.60
2022-10-31T18:48:18.173Z,7.37
2022-10-31T18:50:46.764Z,7.20
2022-10-31T18:53:15.221Z,6.43
2022-10-31T18:55:47.540Z,5.80
2022-10-31T18:58:18.971Z,7.20
2022-10-31T19:00:47.540Z,6.00
2022-10-31T19:03:16.288Z,5.57
2022-10-31T19:05:45.155Z,5.77
2022-10-31T19:08:13.620Z,6.30
2022-10-31T19:10:42.779Z,7.53
2022-10-31T19:13:11.296Z,5.57
2022-10-31T19:15:39.718Z,5.33
2022-10-31T19:18:08.260Z,7.47
2022-10-31T19:20:40.047Z,5.30
2022-10-31T19:23:08.438Z,5.43
2022-10-31T19:25:36.980Z,5.97
2022-10-31T19:28:05.697Z,5.67
2022-10-31T19:30:34.068Z,6.27
2022-10-31T19:33:02.405Z,6.30
2022-10-31T19:35:30.904Z,5.50
2022-10-31T19:37:59.548Z,6.07
2022-10-31T19:40:28.185Z,6.93
2022-10-31T19:42:56.680Z,5.97
2022-10-31T19:45:25.067Z,4.70
2022-10-31T19:47:53.409Z,5.60
2022-10-31T19:50:21.874Z,5.50
2022-10-31T19:52:50.240Z,6.40
2022-10-31T19:55:18.629Z,6.00
2022-10-31T19:58:11.104Z,5.10
2022-10-31T20:00:35.521Z,4.67
2022-10-31T20:03:04.249Z,5.70
2022-10-31T20:05:33.679Z,6.40
2022-10-31T20:08:02.027Z,5.83
2022-10-31T20:10:30.456Z,7.40
2022-10-31T20:12:59.049Z,6.57
2022-10-31T20:15:27.593Z,5.80
2022-10-31T20:17:56.003Z,5.80
2022-10-31T20:20:24.492Z,6.40
2022-10-31T20:22:52.892Z,4.93
2022-10-31T20:25:21.316Z,4.77
2022-10-31T20:27:49.673Z,5.00
2022-10-31T20:30:18.079Z,7.20
2022-10-31T20:32:49.904Z,5.40
2022-10-31T20:35:19.525Z,5.73
2022-10-31T20:37:47.948Z,6.00
2022-10-31T20:40:16.402Z,6.50
2022-10-31T20:42:44.789Z,5.77
2022-10-31T20:45:13.262Z,6.30
2022-10-31T20:47:41.683Z,6.33
2022-10-31T20:50:10.144Z,5.43
2022-10-31T20:52:38.656Z,5.10
2022-10-31T20:55:07.936Z,6.07
2022-10-31T20:57:36.562Z,6.60
2022-10-31T21:00:06.540Z,6.20
2022-10-31T21:02:35.349Z,6.03
2022-10-31T21:05:04.444Z,7.60
2022-10-31T21:07:32.896Z,5.20
2022-10-31T21:10:01.255Z,7.30
2022-10-31T21:12:29.618Z,6.30
2022-10-31T21:14:58.003Z,6.90
2022-10-31T21:17:26.354Z,7.40
2022-10-31T21:19:54.691Z,5.60
2022-10-31T21:22:23.140Z,8.30
2022-10-31T21:24:51.475Z,8.23
2022-10-31T21:27:19.860Z,7.10
2022-10-31T21:29:48.261Z,6.60
2022-10-31T21:32:16.604Z,4.80
2022-10-31T21:34:44.946Z,3.90
2022-10-31T21:37:13.364Z,4.50
2022-10-31T21:39:43.711Z,4.20
2022-10-31T21:42:17.493Z,3.80
2022-10-31T21:44:48.903Z,3.80
2022-10-31T21:47:17.676Z,3.40
2022-10-31T21:49:46.496Z,4.37
2022-10-31T21:52:14.953Z,4.67
2022-10-31T21:54:43.417Z,3.40
2022-10-31T21:57:11.902Z,3.17
2022-10-31T21:59:42.090Z,3.60
2022-10-31T22:02:11.132Z,2.77
2022-10-31T22:04:41.880Z,4.27
2022-10-31T22:07:10.236Z,5.03
2022-10-31T22:09:39.739Z,3.97
2022-10-31T22:12:09.939Z,3.80
2022-10-31T22:14:38.320Z,4.60
2022-10-31T22:17:06.776Z,3.87
2022-10-31T22:19:35.549Z,3.70
2022-10-31T22:22:04.122Z,3.60
2022-10-31T22:24:32.552Z,4.40
2022-10-31T22:27:00.918Z,4.73
2022-10-31T22:29:29.639Z,4.73
2022-10-31T22:31:59.588Z,3.63
2022-10-31T22:34:28.971Z,4.17
2022-10-31T22:36:57.632Z,3.93
2022-10-31T22:39:26.120Z,3.33
2022-10-31T22:41:54.512Z,4.10
2022-10-31T22:44:23.097Z,3.80
2022-10-31T22:46:51.481Z,4.27
2022-10-31T22:49:19.898Z,4.43
2022-10-31T22:51:51.054Z,3.67
2022-10-31T22:54:20.882Z,4.40
2022-10-31T22:56:49.562Z,4.33
2022-10-31T22:59:18.517Z,3.87
2022-10-31T23:01:47.222Z,4.60
2022-10-31T23:04:17.238Z,4.37
2022-10-31T23:06:45.863Z,3.57
2022-10-31T23:09:17.387Z,4.20
2022-10-31T23:11:46.078Z,4.97
2022-10-31T23:14:19.501Z,5.33
2022-10-31T23:16:58.269Z,6.10
2022-10-31T23:19:30.130Z,6.40
2022-10-31T23:22:04.859Z,7.13
2022-10-31T23:24:40.381Z,7.20
2022-10-31T23:27:23.680Z,13.60
2022-10-31T23:30:00.551Z,7.40
2022-10-31T23:32:32.628Z,7.00
2022-10-31T23:35:03.787Z,7.77
2022-10-31T23:37:34.551Z,8.60
2022-10-31T23:40:03.025Z,7.10
2022-10-31T23:42:31.498Z,9.33
2022-10-31T23:44:59.852Z,8.27
2022-10-31T23:47:28.206Z,6.90
2022-10-31T23:49:56.657Z,8.67
2022-10-31T23:52:25.002Z,7.60
2022-10-31T23:54:53.395Z,8.47
2022-10-31T23:57:21.829Z,10.70
2022-10-31T23:59:50.257Z,9.97
